sensor_id;sensor_type;location;lat;lon;timestamp;P1;durP1;ratioP1;P2;durP2;ratioP2
54428;SDS011;40337;52.978;6.310;2022-12-07T00:00:17;7.43;;;2.00;;
54428;SDS011;40337;52.978;6.310;2022-12-07T00:02:42;9.60;;;2.22;;
54428;SDS011;40337;52.978;6.310;2022-12-07T00:05:08;10.10;;;2.30;;
54428;SDS011;40337;52.978;6.310;2022-12-07T00:07:33;7.15;;;2.20;;
54428;SDS011;40337;52.978;6.310;2022-12-07T00:09:59;9.77;;;2.30;;
54428;SDS011;40337;52.978;6.310;2022-12-07T00:12:24;8.65;;;2.30;;
54428;SDS011;40337;52.978;6.310;2022-12-07T00:14:50;7.63;;;2.22;;
54428;SDS011;40337;52.978;6.310;2022-12-07T00:17:15;8.75;;;2.42;;
54428;SDS011;40337;52.978;6.310;2022-12-07T00:19:41;8.02;;;2.30;;
54428;SDS011;40337;52.978;6.310;2022-12-07T00:22:06;11.68;;;2.60;;
54428;SDS011;40337;52.978;6.310;2022-12-07T00:24:32;9.90;;;2.22;;
54428;SDS011;40337;52.978;6.310;2022-12-07T00:26:57;11.77;;;2.50;;
54428;SDS011;40337;52.978;6.310;2022-12-07T00:29:23;10.38;;;2.38;;
54428;SDS011;40337;52.978;6.310;2022-12-07T00:31:49;6.80;;;2.58;;
54428;SDS011;40337;52.978;6.310;2022-12-07T00:34:16;10.52;;;2.58;;
54428;SDS011;40337;52.978;6.310;2022-12-07T00:36:43;9.25;;;2.13;;
54428;SDS011;40337;52.978;6.310;2022-12-07T00:39:09;8.45;;;2.20;;
54428;SDS011;40337;52.978;6.310;2022-12-07T00:41:35;9.73;;;2.35;;
54428;SDS011;40337;52.978;6.310;2022-12-07T00:44:00;7.38;;;2.10;;
54428;SDS011;40337;52.978;6.310;2022-12-07T00:46:26;6.40;;;1.90;;
54428;SDS011;40337;52.978;6.310;2022-12-07T00:48:52;9.68;;;2.20;;
54428;SDS011;40337;52.978;6.310;2022-12-07T00:51:22;7.28;;;1.95;;
54428;SDS011;40337;52.978;6.310;2022-12-07T00:53:49;6.53;;;1.80;;
54428;SDS011;40337;52.978;6.310;2022-12-07T00:56:19;9.43;;;2.28;;
54428;SDS011;40337;52.978;6.310;2022-12-07T00:58:53;9.27;;;1.58;;
54428;SDS011;40337;52.978;6.310;2022-12-07T01:01:20;9.15;;;1.80;;
54428;SDS011;40337;52.978;6.310;2022-12-07T01:03:46;7.43;;;2.10;;
54428;SDS011;40337;52.978;6.310;2022-12-07T01:06:16;8.23;;;1.90;;
54428;SDS011;40337;52.978;6.310;2022-12-07T01:08:43;10.18;;;2.40;;
54428;SDS011;40337;52.978;6.310;2022-12-07T01:11:09;8.27;;;1.85;;
54428;SDS011;40337;52.978;6.310;2022-12-07T01:13:38;6.82;;;1.50;;
54428;SDS011;40337;52.978;6.310;2022-12-07T01:16:04;6.65;;;1.60;;
54428;SDS011;40337;52.978;6.310;2022-12-07T01:18:32;7.15;;;1.60;;
54428;SDS011;40337;52.978;6.310;2022-12-07T01:21:04;5.43;;;1.42;;
54428;SDS011;40337;52.978;6.310;2022-12-07T01:23:31;4.38;;;1.48;;
54428;SDS011;40337;52.978;6.310;2022-12-07T01:26:00;10.93;;;1.65;;
54428;SDS011;40337;52.978;6.310;2022-12-07T01:28:27;7.20;;;1.80;;
54428;SDS011;40337;52.978;6.310;2022-12-07T01:30:56;6.95;;;2.15;;
54428;SDS011;40337;52.978;6.310;2022-12-07T01:33:28;6.55;;;1.80;;
54428;SDS011;40337;52.978;6.310;2022-12-07T01:35:55;8.73;;;2.10;;
54428;SDS011;40337;52.978;6.310;2022-12-07T01:38:32;6.88;;;1.70;;
54428;SDS011;40337;52.978;6.310;2022-12-07T01:40:59;8.70;;;2.20;;
54428;SDS011;40337;52.978;6.310;2022-12-07T01:43:27;8.48;;;1.73;;
54428;SDS011;40337;52.978;6.310;2022-12-07T01:45:54;6.13;;;1.90;;
54428;SDS011;40337;52.978;6.310;2022-12-07T01:48:22;6.47;;;1.90;;
54428;SDS011;40337;52.978;6.310;2022-12-07T01:50:53;9.00;;;1.92;;
54428;SDS011;40337;52.978;6.310;2022-12-07T01:53:20;8.18;;;1.83;;
54428;SDS011;40337;52.978;6.310;2022-12-07T01:55:49;8.18;;;2.05;;
54428;SDS011;40337;52.978;6.310;2022-12-07T01:58:17;8.02;;;1.60;;
54428;SDS011;40337;52.978;6.310;2022-12-07T02:00:42;7.68;;;1.73;;
54428;SDS011;40337;52.978;6.310;2022-12-07T02:03:09;7.47;;;1.70;;
54428;SDS011;40337;52.978;6.310;2022-12-07T02:05:40;6.55;;;1.65;;
54428;SDS011;40337;52.978;6.310;2022-12-07T02:08:08;7.32;;;1.65;;
54428;SDS011;40337;52.978;6.310;2022-12-07T02:10:34;8.65;;;1.98;;
54428;SDS011;40337;52.978;6.310;2022-12-07T02:13:34;7.20;;;1.67;;
54428;SDS011;40337;52.978;6.310;2022-12-07T02:18:44;6.85;;;1.63;;
54428;SDS011;40337;52.978;6.310;2022-12-07T02:24:08;5.10;;;1.55;;
54428;SDS011;40337;52.978;6.310;2022-12-07T02:29:39;7.25;;;1.63;;
54428;SDS011;40337;52.978;6.310;2022-12-07T02:35:05;6.25;;;1.52;;
54428;SDS011;40337;52.978;6.310;2022-12-07T02:40:43;6.72;;;1.60;;
54428;SDS011;40337;52.978;6.310;2022-12-07T02:43:24;8.23;;;1.55;;
54428;SDS011;40337;52.978;6.310;2022-12-07T02:45:50;6.40;;;1.50;;
54428;SDS011;40337;52.978;6.310;2022-12-07T02:48:20;6.55;;;1.30;;
54428;SDS011;40337;52.978;6.310;2022-12-07T02:50:50;6.78;;;1.58;;
54428;SDS011;40337;52.978;6.310;2022-12-07T02:59:12;6.90;;;1.80;;
54428;SDS011;40337;52.978;6.310;2022-12-07T03:04:50;6.03;;;1.40;;
54428;SDS011;40337;52.978;6.310;2022-12-07T03:07:55;7.13;;;1.60;;
54428;SDS011;40337;52.978;6.310;2022-12-07T03:12:58;4.68;;;1.25;;
54428;SDS011;40337;52.978;6.310;2022-12-07T03:16:16;6.20;;;1.42;;
54428;SDS011;40337;52.978;6.310;2022-12-07T03:18:23;8.63;;;1.52;;
54428;SDS011;40337;52.978;6.310;2022-12-07T03:20:53;8.27;;;1.80;;
54428;SDS011;40337;52.978;6.310;2022-12-07T03:23:21;6.85;;;1.40;;
54428;SDS011;40337;52.978;6.310;2022-12-07T03:25:51;7.45;;;1.75;;
54428;SDS011;40337;52.978;6.310;2022-12-07T03:28:20;6.22;;;1.85;;
54428;SDS011;40337;52.978;6.310;2022-12-07T03:30:50;7.32;;;1.58;;
54428;SDS011;40337;52.978;6.310;2022-12-07T03:33:40;8.10;;;1.75;;
54428;SDS011;40337;52.978;6.310;2022-12-07T03:36:23;8.88;;;2.03;;
54428;SDS011;40337;52.978;6.310;2022-12-07T03:39:34;6.75;;;1.60;;
54428;SDS011;40337;52.978;6.310;2022-12-07T03:41:57;10.88;;;2.10;;
54428;SDS011;40337;52.978;6.310;2022-12-07T03:44:25;7.13;;;1.70;;
54428;SDS011;40337;52.978;6.310;2022-12-07T03:47:02;6.55;;;1.50;;
54428;SDS011;40337;52.978;6.310;2022-12-07T03:54:53;7.22;;;1.60;;
54428;SDS011;40337;52.978;6.310;2022-12-07T03:57:25;8.93;;;1.70;;
54428;SDS011;40337;52.978;6.310;2022-12-07T03:59:54;6.35;;;1.70;;
54428;SDS011;40337;52.978;6.310;2022-12-07T04:02:21;6.00;;;1.73;;
54428;SDS011;40337;52.978;6.310;2022-12-07T04:04:48;8.52;;;1.65;;
54428;SDS011;40337;52.978;6.310;2022-12-07T04:07:14;7.60;;;1.85;;
54428;SDS011;40337;52.978;6.310;2022-12-07T04:09:40;7.47;;;1.70;;
54428;SDS011;40337;52.978;6.310;2022-12-07T04:12:05;9.57;;;1.85;;
54428;SDS011;40337;52.978;6.310;2022-12-07T04:14:31;8.43;;;1.63;;
54428;SDS011;40337;52.978;6.310;2022-12-07T04:16:57;6.72;;;1.70;;
54428;SDS011;40337;52.978;6.310;2022-12-07T04:19:41;8.05;;;1.35;;
54428;SDS011;40337;52.978;6.310;2022-12-07T04:22:07;8.70;;;1.40;;
54428;SDS011;40337;52.978;6.310;2022-12-07T04:24:32;7.53;;;1.67;;
54428;SDS011;40337;52.978;6.310;2022-12-07T04:26:59;8.65;;;2.00;;
54428;SDS011;40337;52.978;6.310;2022-12-07T04:29:24;9.45;;;1.70;;
54428;SDS011;40337;52.978;6.310;2022-12-07T04:31:50;6.10;;;1.50;;
54428;SDS011;40337;52.978;6.310;2022-12-07T04:34:17;6.10;;;1.50;;
54428;SDS011;40337;52.978;6.310;2022-12-07T04:36:44;9.68;;;1.90;;
54428;SDS011;40337;52.978;6.310;2022-12-07T04:39:19;8.77;;;1.73;;
54428;SDS011;40337;52.978;6.310;2022-12-07T04:41:45;8.05;;;1.75;;
54428;SDS011;40337;52.978;6.310;2022-12-07T04:44:11;6.03;;;1.40;;
54428;SDS011;40337;52.978;6.310;2022-12-07T04:46:39;7.97;;;1.50;;
54428;SDS011;40337;52.978;6.310;2022-12-07T04:49:05;13.85;;;1.95;;
54428;SDS011;40337;52.978;6.310;2022-12-07T04:51:31;6.68;;;1.65;;
54428;SDS011;40337;52.978;6.310;2022-12-07T04:53:57;8.38;;;1.75;;
54428;SDS011;40337;52.978;6.310;2022-12-07T04:56:23;5.53;;;1.52;;
54428;SDS011;40337;52.978;6.310;2022-12-07T04:58:49;7.00;;;1.52;;
54428;SDS011;40337;52.978;6.310;2022-12-07T05:01:16;5.28;;;1.58;;
54428;SDS011;40337;52.978;6.310;2022-12-07T05:03:42;8.40;;;1.70;;
54428;SDS011;40337;52.978;6.310;2022-12-07T05:06:08;7.80;;;1.63;;
54428;SDS011;40337;52.978;6.310;2022-12-07T05:08:34;5.90;;;1.60;;
54428;SDS011;40337;52.978;6.310;2022-12-07T05:11:01;4.93;;;1.38;;
54428;SDS011;40337;52.978;6.310;2022-12-07T05:13:28;8.23;;;1.75;;
54428;SDS011;40337;52.978;6.310;2022-12-07T05:15:53;9.27;;;1.60;;
54428;SDS011;40337;52.978;6.310;2022-12-07T05:18:19;8.35;;;1.55;;
54428;SDS011;40337;52.978;6.310;2022-12-07T05:20:45;8.60;;;1.65;;
54428;SDS011;40337;52.978;6.310;2022-12-07T05:23:11;9.05;;;1.83;;
54428;SDS011;40337;52.978;6.310;2022-12-07T05:25:37;5.13;;;1.25;;
54428;SDS011;40337;52.978;6.310;2022-12-07T05:28:03;7.00;;;1.63;;
54428;SDS011;40337;52.978;6.310;2022-12-07T05:30:29;10.43;;;1.83;;
54428;SDS011;40337;52.978;6.310;2022-12-07T05:32:54;6.68;;;1.60;;
54428;SDS011;40337;52.978;6.310;2022-12-07T05:35:20;9.82;;;2.00;;
54428;SDS011;40337;52.978;6.310;2022-12-07T05:37:46;6.95;;;1.70;;
54428;SDS011;40337;52.978;6.310;2022-12-07T05:40:12;7.20;;;1.85;;
54428;SDS011;40337;52.978;6.310;2022-12-07T05:42:38;8.55;;;1.90;;
54428;SDS011;40337;52.978;6.310;2022-12-07T05:45:04;7.88;;;1.70;;
54428;SDS011;40337;52.978;6.310;2022-12-07T05:47:31;7.97;;;1.98;;
54428;SDS011;40337;52.978;6.310;2022-12-07T05:49:56;9.82;;;2.20;;
54428;SDS011;40337;52.978;6.310;2022-12-07T05:52:22;5.43;;;1.60;;
54428;SDS011;40337;52.978;6.310;2022-12-07T05:54:48;7.20;;;1.63;;
54428;SDS011;40337;52.978;6.310;2022-12-07T05:57:13;5.65;;;1.77;;
54428;SDS011;40337;52.978;6.310;2022-12-07T05:59:39;8.30;;;1.70;;
54428;SDS011;40337;52.978;6.310;2022-12-07T06:02:06;7.22;;;1.55;;
54428;SDS011;40337;52.978;6.310;2022-12-07T06:04:37;7.57;;;1.58;;
54428;SDS011;40337;52.978;6.310;2022-12-07T06:07:06;6.47;;;1.55;;
54428;SDS011;40337;52.978;6.310;2022-12-07T06:09:32;5.88;;;1.50;;
54428;SDS011;40337;52.978;6.310;2022-12-07T06:11:58;7.53;;;1.77;;
54428;SDS011;40337;52.978;6.310;2022-12-07T06:14:43;4.60;;;1.40;;
54428;SDS011;40337;52.978;6.310;2022-12-07T06:17:09;7.05;;;1.35;;
54428;SDS011;40337;52.978;6.310;2022-12-07T06:19:36;7.90;;;1.60;;
54428;SDS011;40337;52.978;6.310;2022-12-07T06:22:01;8.55;;;1.55;;
54428;SDS011;40337;52.978;6.310;2022-12-07T06:24:29;10.07;;;1.63;;
54428;SDS011;40337;52.978;6.310;2022-12-07T06:26:56;5.93;;;1.38;;
54428;SDS011;40337;52.978;6.310;2022-12-07T06:29:22;7.00;;;1.70;;
54428;SDS011;40337;52.978;6.310;2022-12-07T06:31:48;9.00;;;1.55;;
54428;SDS011;40337;52.978;6.310;2022-12-07T06:34:14;9.10;;;1.80;;
54428;SDS011;40337;52.978;6.310;2022-12-07T06:36:41;7.38;;;1.73;;
54428;SDS011;40337;52.978;6.310;2022-12-07T06:39:07;6.50;;;1.95;;
54428;SDS011;40337;52.978;6.310;2022-12-07T06:41:34;9.05;;;1.98;;
54428;SDS011;40337;52.978;6.310;2022-12-07T06:44:01;7.18;;;1.95;;
54428;SDS011;40337;52.978;6.310;2022-12-07T06:46:27;7.13;;;1.70;;
54428;SDS011;40337;52.978;6.310;2022-12-07T06:48:53;11.50;;;2.30;;
54428;SDS011;40337;52.978;6.310;2022-12-07T06:51:18;9.55;;;2.10;;
54428;SDS011;40337;52.978;6.310;2022-12-07T06:53:44;10.18;;;2.00;;
54428;SDS011;40337;52.978;6.310;2022-12-07T06:56:10;7.28;;;1.70;;
54428;SDS011;40337;52.978;6.310;2022-12-07T06:58:35;7.53;;;2.15;;
54428;SDS011;40337;52.978;6.310;2022-12-07T07:01:01;6.35;;;1.70;;
54428;SDS011;40337;52.978;6.310;2022-12-07T07:03:26;8.90;;;1.90;;
54428;SDS011;40337;52.978;6.310;2022-12-07T07:05:52;8.30;;;1.70;;
54428;SDS011;40337;52.978;6.310;2022-12-07T07:08:17;8.85;;;2.00;;
54428;SDS011;40337;52.978;6.310;2022-12-07T07:10:43;6.38;;;2.00;;
54428;SDS011;40337;52.978;6.310;2022-12-07T07:13:09;7.82;;;1.67;;
54428;SDS011;40337;52.978;6.310;2022-12-07T07:15:34;8.18;;;1.70;;
54428;SDS011;40337;52.978;6.310;2022-12-07T07:18:03;9.93;;;2.10;;
54428;SDS011;40337;52.978;6.310;2022-12-07T07:20:29;7.50;;;1.73;;
54428;SDS011;40337;52.978;6.310;2022-12-07T07:22:55;6.05;;;1.73;;
54428;SDS011;40337;52.978;6.310;2022-12-07T07:25:20;10.50;;;1.92;;
54428;SDS011;40337;52.978;6.310;2022-12-07T07:27:46;7.30;;;2.00;;
54428;SDS011;40337;52.978;6.310;2022-12-07T07:30:11;8.65;;;1.98;;
54428;SDS011;40337;52.978;6.310;2022-12-07T07:32:37;9.68;;;2.13;;
54428;SDS011;40337;52.978;6.310;2022-12-07T07:35:03;9.52;;;2.20;;
54428;SDS011;40337;52.978;6.310;2022-12-07T07:37:28;9.90;;;2.58;;
54428;SDS011;40337;52.978;6.310;2022-12-07T07:39:54;7.35;;;2.15;;
54428;SDS011;40337;52.978;6.310;2022-12-07T07:42:20;6.55;;;2.17;;
54428;SDS011;40337;52.978;6.310;2022-12-07T07:44:45;8.65;;;2.40;;
54428;SDS011;40337;52.978;6.310;2022-12-07T07:47:11;7.60;;;2.20;;
54428;SDS011;40337;52.978;6.310;2022-12-07T07:49:36;8.02;;;2.22;;
54428;SDS011;40337;52.978;6.310;2022-12-07T07:52:02;8.40;;;2.25;;
54428;SDS011;40337;52.978;6.310;2022-12-07T07:54:28;8.82;;;2.13;;
54428;SDS011;40337;52.978;6.310;2022-12-07T07:56:54;8.32;;;1.90;;
54428;SDS011;40337;52.978;6.310;2022-12-07T07:59:19;7.63;;;1.70;;
54428;SDS011;40337;52.978;6.310;2022-12-07T08:01:45;8.82;;;1.83;;
54428;SDS011;40337;52.978;6.310;2022-12-07T08:04:10;7.07;;;1.73;;
54428;SDS011;40337;52.978;6.310;2022-12-07T08:06:36;6.32;;;1.92;;
54428;SDS011;40337;52.978;6.310;2022-12-07T08:09:02;6.43;;;1.90;;
54428;SDS011;40337;52.978;6.310;2022-12-07T08:11:30;6.47;;;2.17;;
54428;SDS011;40337;52.978;6.310;2022-12-07T08:13:55;8.95;;;2.47;;
54428;SDS011;40337;52.978;6.310;2022-12-07T08:16:21;10.98;;;2.55;;
54428;SDS011;40337;52.978;6.310;2022-12-07T08:18:46;9.38;;;2.22;;
54428;SDS011;40337;52.978;6.310;2022-12-07T08:21:12;7.10;;;2.40;;
54428;SDS011;40337;52.978;6.310;2022-12-07T08:23:40;9.40;;;2.40;;
54428;SDS011;40337;52.978;6.310;2022-12-07T08:26:10;9.05;;;2.10;;
54428;SDS011;40337;52.978;6.310;2022-12-07T08:28:37;9.27;;;2.22;;
54428;SDS011;40337;52.978;6.310;2022-12-07T08:31:04;8.05;;;2.40;;
54428;SDS011;40337;52.978;6.310;2022-12-07T08:33:31;7.45;;;2.53;;
54428;SDS011;40337;52.978;6.310;2022-12-07T08:36:01;9.50;;;2.20;;
54428;SDS011;40337;52.978;6.310;2022-12-07T08:38:27;11.02;;;2.55;;
54428;SDS011;40337;52.978;6.310;2022-12-07T08:40:57;12.48;;;2.50;;
54428;SDS011;40337;52.978;6.310;2022-12-07T08:43:23;9.27;;;2.33;;
54428;SDS011;40337;52.978;6.310;2022-12-07T08:45:51;10.10;;;2.50;;
54428;SDS011;40337;52.978;6.310;2022-12-07T08:48:32;9.35;;;2.30;;
54428;SDS011;40337;52.978;6.310;2022-12-07T08:50:59;9.48;;;2.30;;
54428;SDS011;40337;52.978;6.310;2022-12-07T08:53:26;7.72;;;2.17;;
54428;SDS011;40337;52.978;6.310;2022-12-07T08:55:54;7.22;;;2.13;;
54428;SDS011;40337;52.978;6.310;2022-12-07T08:58:21;8.45;;;2.38;;
54428;SDS011;40337;52.978;6.310;2022-12-07T09:00:47;10.13;;;2.40;;
54428;SDS011;40337;52.978;6.310;2022-12-07T09:03:12;9.20;;;2.20;;
54428;SDS011;40337;52.978;6.310;2022-12-07T09:05:38;6.72;;;2.03;;
54428;SDS011;40337;52.978;6.310;2022-12-07T09:08:04;7.50;;;2.40;;
54428;SDS011;40337;52.978;6.310;2022-12-07T09:10:30;9.90;;;2.40;;
54428;SDS011;40337;52.978;6.310;2022-12-07T09:12:55;10.98;;;2.67;;
54428;SDS011;40337;52.978;6.310;2022-12-07T09:15:25;10.95;;;2.65;;
54428;SDS011;40337;52.978;6.310;2022-12-07T09:17:54;8.75;;;2.30;;
54428;SDS011;40337;52.978;6.310;2022-12-07T09:20:19;8.35;;;2.30;;
54428;SDS011;40337;52.978;6.310;2022-12-07T09:22:45;10.23;;;2.42;;
54428;SDS011;40337;52.978;6.310;2022-12-07T09:25:10;12.23;;;2.80;;
54428;SDS011;40337;52.978;6.310;2022-12-07T09:27:36;10.18;;;2.55;;
54428;SDS011;40337;52.978;6.310;2022-12-07T09:30:02;10.45;;;2.40;;
54428;SDS011;40337;52.978;6.310;2022-12-07T09:32:29;10.82;;;2.55;;
54428;SDS011;40337;52.978;6.310;2022-12-07T09:34:54;8.75;;;2.17;;
54428;SDS011;40337;52.978;6.310;2022-12-07T09:37:20;8.32;;;2.33;;
54428;SDS011;40337;52.978;6.310;2022-12-07T09:39:45;10.30;;;2.45;;
54428;SDS011;40337;52.978;6.310;2022-12-07T09:42:16;7.65;;;2.28;;
54428;SDS011;40337;52.978;6.310;2022-12-07T09:44:55;6.75;;;1.80;;
54428;SDS011;40337;52.978;6.310;2022-12-07T09:47:21;6.72;;;2.40;;
54428;SDS011;40337;52.978;6.310;2022-12-07T09:49:46;6.53;;;1.83;;
54428;SDS011;40337;52.978;6.310;2022-12-07T09:54:44;5.88;;;1.60;;
54428;SDS011;40337;52.978;6.310;2022-12-07T09:57:12;7.35;;;1.83;;
54428;SDS011;40337;52.978;6.310;2022-12-07T09:59:38;6.60;;;1.45;;
54428;SDS011;40337;52.978;6.310;2022-12-07T10:04:58;6.55;;;1.60;;
54428;SDS011;40337;52.978;6.310;2022-12-07T10:07:24;9.68;;;2.10;;
54428;SDS011;40337;52.978;6.310;2022-12-07T10:09:49;7.35;;;1.90;;
54428;SDS011;40337;52.978;6.310;2022-12-07T10:12:15;7.13;;;2.03;;
54428;SDS011;40337;52.978;6.310;2022-12-07T10:14:52;10.20;;;2.60;;
54428;SDS011;40337;52.978;6.310;2022-12-07T10:17:38;8.60;;;2.23;;
54428;SDS011;40337;52.978;6.310;2022-12-07T10:22:53;8.05;;;2.08;;
54428;SDS011;40337;52.978;6.310;2022-12-07T10:25:21;9.63;;;2.20;;
54428;SDS011;40337;52.978;6.310;2022-12-07T10:28:08;8.45;;;2.20;;
54428;SDS011;40337;52.978;6.310;2022-12-07T10:33:34;8.05;;;1.98;;
54428;SDS011;40337;52.978;6.310;2022-12-07T10:36:15;7.05;;;1.90;;
54428;SDS011;40337;52.978;6.310;2022-12-07T10:38:49;7.03;;;2.10;;
54428;SDS011;40337;52.978;6.310;2022-12-07T10:41:17;7.40;;;1.98;;
54428;SDS011;40337;52.978;6.310;2022-12-07T10:43:50;9.65;;;2.13;;
54428;SDS011;40337;52.978;6.310;2022-12-07T10:55:08;5.95;;;1.80;;
54428;SDS011;40337;52.978;6.310;2022-12-07T10:57:56;7.90;;;2.13;;
54428;SDS011;40337;52.978;6.310;2022-12-07T11:00:24;7.38;;;1.98;;
54428;SDS011;40337;52.978;6.310;2022-12-07T11:08:49;6.95;;;1.73;;
54428;SDS011;40337;52.978;6.310;2022-12-07T11:11:37;8.45;;;2.33;;
54428;SDS011;40337;52.978;6.310;2022-12-07T11:16:52;8.65;;;2.30;;
54428;SDS011;40337;52.978;6.310;2022-12-07T11:22:32;6.88;;;2.20;;
54428;SDS011;40337;52.978;6.310;2022-12-07T11:30:47;9.45;;;2.15;;
54428;SDS011;40337;52.978;6.310;2022-12-07T11:33:27;7.50;;;2.03;;
54428;SDS011;40337;52.978;6.310;2022-12-07T11:36:09;7.65;;;1.88;;
54428;SDS011;40337;52.978;6.310;2022-12-07T11:39:03;8.07;;;1.85;;
54428;SDS011;40337;52.978;6.310;2022-12-07T11:41:37;9.15;;;2.00;;
54428;SDS011;40337;52.978;6.310;2022-12-07T11:44:16;6.68;;;1.95;;
54428;SDS011;40337;52.978;6.310;2022-12-07T11:49:33;7.38;;;1.80;;
54428;SDS011;40337;52.978;6.310;2022-12-07T11:52:18;6.47;;;1.98;;
54428;SDS011;40337;52.978;6.310;2022-12-07T11:54:50;8.27;;;1.98;;
54428;SDS011;40337;52.978;6.310;2022-12-07T11:57:28;8.65;;;2.13;;
54428;SDS011;40337;52.978;6.310;2022-12-07T12:00:05;7.55;;;1.73;;
54428;SDS011;40337;52.978;6.310;2022-12-07T12:02:40;7.70;;;2.00;;
54428;SDS011;40337;52.978;6.310;2022-12-07T12:05:18;7.60;;;2.22;;
54428;SDS011;40337;52.978;6.310;2022-12-07T12:10:30;6.30;;;1.92;;
54428;SDS011;40337;52.978;6.310;2022-12-07T12:18:43;5.80;;;1.75;;
54428;SDS011;40337;52.978;6.310;2022-12-07T12:21:36;6.38;;;1.52;;
54428;SDS011;40337;52.978;6.310;2022-12-07T12:24:04;6.40;;;1.58;;
54428;SDS011;40337;52.978;6.310;2022-12-07T12:26:36;7.95;;;1.67;;
54428;SDS011;40337;52.978;6.310;2022-12-07T12:29:04;6.30;;;1.73;;
54428;SDS011;40337;52.978;6.310;2022-12-07T12:31:32;6.13;;;1.70;;
54428;SDS011;40337;52.978;6.310;2022-12-07T12:34:02;4.45;;;1.23;;
54428;SDS011;40337;52.978;6.310;2022-12-07T12:36:48;3.92;;;1.10;;
54428;SDS011;40337;52.978;6.310;2022-12-07T12:39:15;4.93;;;1.52;;
54428;SDS011;40337;52.978;6.310;2022-12-07T12:51:45;4.68;;;1.30;;
54428;SDS011;40337;52.978;6.310;2022-12-07T12:54:18;4.68;;;1.98;;
54428;SDS011;40337;52.978;6.310;2022-12-07T13:10:24;4.22;;;1.48;;
54428;SDS011;40337;52.978;6.310;2022-12-07T13:17:58;4.18;;;1.55;;
54428;SDS011;40337;52.978;6.310;2022-12-07T13:20:45;4.95;;;1.33;;
54428;SDS011;40337;52.978;6.310;2022-12-07T13:23:19;4.47;;;1.20;;
54428;SDS011;40337;52.978;6.310;2022-12-07T13:25:54;3.75;;;1.10;;
54428;SDS011;40337;52.978;6.310;2022-12-07T13:28:40;4.30;;;1.10;;
54428;SDS011;40337;52.978;6.310;2022-12-07T13:33:44;3.25;;;1.00;;
54428;SDS011;40337;52.978;6.310;2022-12-07T13:36:21;5.57;;;1.10;;
54428;SDS011;40337;52.978;6.310;2022-12-07T13:39:01;3.90;;;1.20;;
54428;SDS011;40337;52.978;6.310;2022-12-07T13:41:43;5.10;;;1.10;;
54428;SDS011;40337;52.978;6.310;2022-12-07T13:44:14;6.43;;;1.38;;
54428;SDS011;40337;52.978;6.310;2022-12-07T13:49:25;7.32;;;1.80;;
54428;SDS011;40337;52.978;6.310;2022-12-07T13:51:53;5.80;;;1.40;;
54428;SDS011;40337;52.978;6.310;2022-12-07T13:54:20;5.75;;;1.30;;
54428;SDS011;40337;52.978;6.310;2022-12-07T13:56:48;5.78;;;1.80;;
54428;SDS011;40337;52.978;6.310;2022-12-07T13:59:19;5.90;;;1.60;;
54428;SDS011;40337;52.978;6.310;2022-12-07T14:01:48;6.15;;;1.60;;
54428;SDS011;40337;52.978;6.310;2022-12-07T14:06:59;5.18;;;1.48;;
54428;SDS011;40337;52.978;6.310;2022-12-07T14:09:27;3.78;;;1.15;;
54428;SDS011;40337;52.978;6.310;2022-12-07T14:11:54;4.35;;;1.30;;
54428;SDS011;40337;52.978;6.310;2022-12-07T14:14:30;4.00;;;1.25;;
54428;SDS011;40337;52.978;6.310;2022-12-07T14:16:57;6.45;;;1.27;;
54428;SDS011;40337;52.978;6.310;2022-12-07T14:22:21;3.70;;;1.13;;
54428;SDS011;40337;52.978;6.310;2022-12-07T14:24:47;5.72;;;1.23;;
54428;SDS011;40337;52.978;6.310;2022-12-07T14:27:20;5.60;;;1.35;;
54428;SDS011;40337;52.978;6.310;2022-12-07T14:29:48;4.30;;;1.30;;
54428;SDS011;40337;52.978;6.310;2022-12-07T14:35:00;4.70;;;1.27;;
54428;SDS011;40337;52.978;6.310;2022-12-07T14:37:32;4.70;;;1.20;;
54428;SDS011;40337;52.978;6.310;2022-12-07T14:39:58;5.40;;;1.30;;
54428;SDS011;40337;52.978;6.310;2022-12-07T14:42:24;5.30;;;1.60;;
54428;SDS011;40337;52.978;6.310;2022-12-07T14:44:53;6.32;;;1.58;;
54428;SDS011;40337;52.978;6.310;2022-12-07T14:47:18;7.57;;;1.40;;
54428;SDS011;40337;52.978;6.310;2022-12-07T14:49:44;5.10;;;1.30;;
54428;SDS011;40337;52.978;6.310;2022-12-07T14:52:20;6.65;;;1.55;;
54428;SDS011;40337;52.978;6.310;2022-12-07T14:54:48;3.58;;;1.20;;
54428;SDS011;40337;52.978;6.310;2022-12-07T14:57:14;8.30;;;1.45;;
54428;SDS011;40337;52.978;6.310;2022-12-07T14:59:39;4.35;;;1.17;;
54428;SDS011;40337;52.978;6.310;2022-12-07T15:02:05;4.35;;;1.20;;
54428;SDS011;40337;52.978;6.310;2022-12-07T15:04:32;6.60;;;1.20;;
54428;SDS011;40337;52.978;6.310;2022-12-07T15:06:58;6.03;;;1.42;;
54428;SDS011;40337;52.978;6.310;2022-12-07T15:09:25;6.20;;;1.38;;
54428;SDS011;40337;52.978;6.310;2022-12-07T15:11:51;3.30;;;1.17;;
54428;SDS011;40337;52.978;6.310;2022-12-07T15:14:17;5.85;;;1.50;;
54428;SDS011;40337;52.978;6.310;2022-12-07T15:16:42;5.13;;;1.50;;
54428;SDS011;40337;52.978;6.310;2022-12-07T15:19:12;5.53;;;1.40;;
54428;SDS011;40337;52.978;6.310;2022-12-07T15:21:40;4.15;;;1.40;;
54428;SDS011;40337;52.978;6.310;2022-12-07T15:24:07;4.82;;;1.48;;
54428;SDS011;40337;52.978;6.310;2022-12-07T15:26:34;6.10;;;1.80;;
54428;SDS011;40337;52.978;6.310;2022-12-07T15:28:59;4.78;;;1.63;;
54428;SDS011;40337;52.978;6.310;2022-12-07T15:31:25;4.63;;;1.23;;
54428;SDS011;40337;52.978;6.310;2022-12-07T15:33:50;7.13;;;1.30;;
54428;SDS011;40337;52.978;6.310;2022-12-07T15:36:20;3.05;;;1.05;;
54428;SDS011;40337;52.978;6.310;2022-12-07T15:38:47;5.25;;;1.50;;
54428;SDS011;40337;52.978;6.310;2022-12-07T15:41:13;3.85;;;1.20;;
54428;SDS011;40337;52.978;6.310;2022-12-07T15:43:39;6.90;;;1.50;;
54428;SDS011;40337;52.978;6.310;2022-12-07T15:46:23;3.65;;;1.20;;
54428;SDS011;40337;52.978;6.310;2022-12-07T15:48:49;5.90;;;1.02;;
54428;SDS011;40337;52.978;6.310;2022-12-07T15:51:15;4.47;;;1.15;;
54428;SDS011;40337;52.978;6.310;2022-12-07T15:53:41;3.58;;;1.10;;
54428;SDS011;40337;52.978;6.310;2022-12-07T15:56:07;3.60;;;1.20;;
54428;SDS011;40337;52.978;6.310;2022-12-07T15:58:33;3.72;;;1.48;;
54428;SDS011;40337;52.978;6.310;2022-12-07T16:00:59;4.90;;;1.50;;
54428;SDS011;40337;52.978;6.310;2022-12-07T16:03:26;5.22;;;1.60;;
54428;SDS011;40337;52.978;6.310;2022-12-07T16:05:52;4.63;;;1.58;;
54428;SDS011;40337;52.978;6.310;2022-12-07T16:08:18;3.95;;;1.60;;
54428;SDS011;40337;52.978;6.310;2022-12-07T16:10:44;4.40;;;1.70;;
54428;SDS011;40337;52.978;6.310;2022-12-07T16:13:10;4.97;;;1.80;;
54428;SDS011;40337;52.978;6.310;2022-12-07T16:15:39;4.38;;;1.40;;
54428;SDS011;40337;52.978;6.310;2022-12-07T16:18:05;3.85;;;1.40;;
54428;SDS011;40337;52.978;6.310;2022-12-07T16:20:31;3.45;;;1.20;;
54428;SDS011;40337;52.978;6.310;2022-12-07T16:22:57;5.57;;;1.40;;
54428;SDS011;40337;52.978;6.310;2022-12-07T16:25:23;3.88;;;1.40;;
54428;SDS011;40337;52.978;6.310;2022-12-07T16:27:49;4.05;;;1.10;;
54428;SDS011;40337;52.978;6.310;2022-12-07T16:30:15;4.22;;;1.15;;
54428;SDS011;40337;52.978;6.310;2022-12-07T16:32:41;5.38;;;1.38;;
54428;SDS011;40337;52.978;6.310;2022-12-07T16:35:07;3.80;;;1.00;;
54428;SDS011;40337;52.978;6.310;2022-12-07T16:37:33;5.40;;;1.10;;
54428;SDS011;40337;52.978;6.310;2022-12-07T16:40:00;2.85;;;1.40;;
54428;SDS011;40337;52.978;6.310;2022-12-07T16:42:26;3.75;;;1.40;;
54428;SDS011;40337;52.978;6.310;2022-12-07T16:44:51;4.47;;;1.40;;
54428;SDS011;40337;52.978;6.310;2022-12-07T16:47:17;5.60;;;1.52;;
54428;SDS011;40337;52.978;6.310;2022-12-07T16:49:43;5.15;;;1.60;;
54428;SDS011;40337;52.978;6.310;2022-12-07T16:52:09;3.75;;;1.50;;
54428;SDS011;40337;52.978;6.310;2022-12-07T16:54:35;3.47;;;1.63;;
54428;SDS011;40337;52.978;6.310;2022-12-07T16:57:01;3.65;;;1.70;;